Time;durP1;ratioP1;P1;durP2;ratioP2;P2;SDS_P1;SDS_P2;PMS_P1;PMS_P2;Temp;Humidity;BMP_temperature;BMP_pressure;BME280_temperature;BME280_humidity;BME280_pressure;Samples;Min_cycle;Max_cycle;Signal;HPM_P1;HPM_P2
2022/01/27 00:02:02;;;;;;;7.90;1.52;;;18.30;58.90;;;;;;6220691;22;20174;-82
2022/01/27 00:04:37;;;;;;;3.35;1.58;;;18.30;58.70;;;;;;6209093;22;20564;-83
2022/01/27 00:07:03;;;;;;;2.50;1.40;;;18.30;58.70;;;;;;6206258;22;20151;-82
2022/01/27 00:09:47;;;;;;;3.38;1.60;;;18.30;58.90;;;;;;6203999;23;20140;-81
2022/01/27 00:12:18;;;;;;;4.75;1.45;;;18.30;59.00;;;;;;6210328;22;20241;-83
2022/01/27 00:14:46;;;;;;;4.03;1.60;;;18.30;58.90;;;;;;6204197;22;20650;-82
2022/01/27 00:17:15;;;;;;;4.20;1.50;;;18.30;58.80;;;;;;6230437;22;20155;-81
2022/01/27 00:19:42;;;;;;;3.70;1.27;;;18.30;58.80;;;;;;6228117;22;20455;-82
2022/01/27 00:22:08;;;;;;;3.55;1.27;;;18.30;58.90;;;;;;6203728;23;20632;-82
2022/01/27 00:24:34;;;;;;;3.78;1.30;;;18.30;58.80;;;;;;6229128;22;20230;-82
2022/01/27 00:27:00;;;;;;;3.90;1.27;;;18.30;58.60;;;;;;6229117;23;20215;-83
2022/01/27 00:29:26;;;;;;;2.10;1.38;;;18.30;58.90;;;;;;6254948;22;20547;-82
2022/01/27 00:31:52;;;;;;;4.10;1.60;;;18.20;59.00;;;;;;6229087;23;20144;-82
2022/01/27 00:34:18;;;;;;;3.13;1.35;;;18.30;58.90;;;;;;6254204;22;20185;-82
2022/01/27 00:36:45;;;;;;;2.95;1.30;;;18.30;58.60;;;;;;6228986;22;20591;-82
2022/01/27 00:39:11;;;;;;;3.25;1.27;;;18.30;59.00;;;;;;6228497;23;20166;-82
2022/01/27 00:41:37;;;;;;;4.13;1.48;;;18.20;58.80;;;;;;6228983;23;20151;-82
2022/01/27 00:44:03;;;;;;;3.80;1.20;;;18.20;58.80;;;;;;6203917;22;20183;-82
2022/01/27 00:46:32;;;;;;;4.63;1.38;;;18.20;58.90;;;;;;6203890;23;20518;-82
2022/01/27 00:48:57;;;;;;;5.18;1.58;;;18.20;58.90;;;;;;6226804;22;20128;-83
2022/01/27 00:51:27;;;;;;;3.38;1.55;;;18.20;59.00;;;;;;6203832;23;20158;-82
2022/01/27 00:54:04;;;;;;;2.72;1.50;;;18.20;58.70;;;;;;6230013;22;20158;-82
2022/01/27 00:59:35;;;;;;;3.53;1.40;;;18.20;58.30;;;;;;6198051;23;20595;-82
2022/01/27 01:02:09;;;;;;;4.40;1.30;;;18.20;58.50;;;;;;6163929;23;20157;-82
2022/01/27 01:04:40;;;;;;;2.55;1.27;;;18.20;58.60;;;;;;6154633;23;20191;-82
2022/01/27 01:07:07;;;;;;;2.67;1.30;;;18.20;58.50;;;;;;6150198;23;20152;-82
2022/01/27 01:13:13;;;;;;;2.55;1.52;;;18.20;58.50;;;;;;6191379;23;20190;-82
2022/01/27 01:15:05;;;;;;;2.80;1.05;;;18.20;58.60;;;;;;6185324;23;20239;-82
2022/01/27 01:17:40;;;;;;;4.70;1.05;;;18.20;58.90;;;;;;6152918;23;20603;-82
2022/01/27 01:30:59;;;;;;;3.25;1.30;;;18.10;58.70;;;;;;6167190;23;20240;-82
2022/01/27 01:33:33;;;;;;;2.25;1.30;;;18.10;58.90;;;;;;6128734;23;20190;-82
2022/01/27 01:36:12;;;;;;;2.42;1.33;;;18.10;58.70;;;;;;6146678;23;20152;-81
2022/01/27 01:38:38;;;;;;;2.92;1.05;;;18.10;58.70;;;;;;6189651;23;20132;-82
2022/01/27 01:41:04;;;;;;;3.72;1.45;;;18.10;58.70;;;;;;6198904;23;20141;-82
2022/01/27 01:43:31;;;;;;;4.00;1.33;;;18.00;58.90;;;;;;6173432;23;20176;-82
2022/01/27 01:45:56;;;;;;;3.45;1.60;;;18.20;58.50;;;;;;6174570;23;20144;-82
2022/01/27 01:48:23;;;;;;;4.10;1.45;;;18.20;58.60;;;;;;6173637;23;20152;-82
2022/01/27 01:50:49;;;;;;;2.58;1.48;;;18.10;58.50;;;;;;6173903;23;20151;-82
2022/01/27 01:53:15;;;;;;;2.08;1.40;;;18.10;58.50;;;;;;6173495;23;20510;-82
2022/01/27 01:55:40;;;;;;;4.30;1.67;;;18.20;58.50;;;;;;6173370;23;20207;-82
2022/01/27 01:58:06;;;;;;;2.03;1.45;;;18.10;58.20;;;;;;6173650;23;20199;-82
2022/01/27 02:00:32;;;;;;;2.80;1.58;;;18.20;58.60;;;;;;6173421;23;20152;-82
2022/01/27 02:02:58;;;;;;;3.25;1.42;;;18.10;58.60;;;;;;6173532;23;20151;-82
2022/01/27 02:05:28;;;;;;;6.07;1.60;;;18.10;58.20;;;;;;6198635;23;20152;-82
2022/01/27 02:08:17;;;;;;;5.88;1.38;;;18.20;58.00;;;;;;6198996;23;20234;-82
2022/01/27 02:18:43;;;;;;;2.13;0.93;;;18.20;58.00;;;;;;6189534;23;20611;-83
2022/01/27 02:21:09;;;;;;;2.45;1.48;;;18.10;58.20;;;;;;6175399;23;20144;-83
2022/01/27 02:23:35;;;;;;;1.77;1.20;;;18.20;58.20;;;;;;6175159;23;20176;-82
2022/01/27 02:26:00;;;;;;;2.20;1.17;;;18.10;58.40;;;;;;6175156;23;20144;-82
2022/01/27 02:28:26;;;;;;;3.75;1.50;;;18.10;58.40;;;;;;6224833;23;20147;-82
2022/01/27 02:30:52;;;;;;;4.60;1.48;;;18.10;58.30;;;;;;6175270;23;20158;-82
2022/01/27 02:33:29;;;;;;;3.80;1.30;;;18.10;58.50;;;;;;6174893;23;20141;-82
2022/01/27 02:35:55;;;;;;;2.92;1.40;;;18.10;58.10;;;;;;6122786;23;20160;-82
2022/01/27 02:38:21;;;;;;;2.42;1.20;;;18.10;57.90;;;;;;6175497;23;20471;-81
2022/01/27 02:40:54;;;;;;;4.70;1.40;;;18.10;58.20;;;;;;6199845;23;20140;-81
2022/01/27 02:43:19;;;;;;;3.85;1.40;;;18.10;58.10;;;;;;6174838;23;20184;-81
2022/01/27 02:46:00;;;;;;;3.03;1.30;;;18.10;57.70;;;;;;6175613;23;20227;-81
2022/01/27 02:48:27;;;;;;;2.10;1.20;;;18.10;58.10;;;;;;6224889;23;20634;-81
2022/01/27 02:50:53;;;;;;;2.53;1.25;;;18.10;57.90;;;;;;6173537;23;20172;-82
2022/01/27 02:53:19;;;;;;;4.90;1.25;;;18.10;58.30;;;;;;6175153;23;20586;-81
2022/01/27 02:55:45;;;;;;;3.10;1.20;;;18.10;58.40;;;;;;6199677;23;20143;-82
2022/01/27 02:58:11;;;;;;;2.65;1.38;;;18.10;58.20;;;;;;6199620;23;20203;-81
2022/01/27 03:00:37;;;;;;;3.25;1.38;;;18.10;58.20;;;;;;6175693;23;20175;-82
2022/01/27 03:03:03;;;;;;;4.80;1.20;;;18.10;58.20;;;;;;6224426;23;20163;-82
2022/01/27 03:05:29;;;;;;;3.05;1.35;;;18.10;57.90;;;;;;6199804;23;20206;-82
2022/01/27 03:07:55;;;;;;;2.53;1.33;;;18.10;57.50;;;;;;6224639;23;20156;-82
2022/01/27 03:10:21;;;;;;;2.85;1.30;;;18.10;58.10;;;;;;6174427;23;20472;-81
2022/01/27 03:12:48;;;;;;;3.85;1.20;;;18.10;58.10;;;;;;6175526;23;20179;-81
2022/01/27 03:15:13;;;;;;;2.67;1.33;;;18.10;58.20;;;;;;6174666;23;20261;-82
2022/01/27 03:17:40;;;;;;;1.67;1.10;;;18.10;58.30;;;;;;6174792;23;20152;-82
2022/01/27 03:20:08;;;;;;;5.72;1.35;;;18.10;57.80;;;;;;6200255;23;20514;-82
2022/01/27 03:22:34;;;;;;;2.08;1.17;;;18.00;58.10;;;;;;6199084;23;20137;-81
2022/01/27 03:25:00;;;;;;;2.50;1.35;;;18.10;58.30;;;;;;6200315;23;20188;-81
2022/01/27 03:27:28;;;;;;;1.52;1.15;;;18.00;58.20;;;;;;6199745;23;20152;-82
2022/01/27 03:29:54;;;;;;;5.15;1.20;;;18.00;58.80;;;;;;6198859;23;20539;-81
2022/01/27 03:32:20;;;;;;;2.83;1.30;;;18.10;58.10;;;;;;6199782;23;20223;-82
2022/01/27 03:34:46;;;;;;;3.72;1.20;;;18.00;58.00;;;;;;6199633;23;20514;-81
2022/01/27 03:37:12;;;;;;;3.80;1.13;;;18.00;58.20;;;;;;6175229;23;20198;-82
2022/01/27 03:39:39;;;;;;;5.30;1.30;;;18.00;58.10;;;;;;6224830;23;20195;-81
2022/01/27 03:42:05;;;;;;;2.75;1.48;;;17.90;58.10;;;;;;6200257;23;20440;-82
2022/01/27 03:44:31;;;;;;;5.25;1.67;;;18.00;58.20;;;;;;6122471;23;20530;-82
2022/01/27 03:46:57;;;;;;;2.40;1.25;;;18.00;57.90;;;;;;6224516;23;20179;-81
2022/01/27 03:49:23;;;;;;;6.57;1.55;;;18.00;58.20;;;;;;6199021;23;20182;-81
2022/01/27 03:51:50;;;;;;;3.80;1.58;;;18.00;58.00;;;;;;6174583;23;20214;-81
2022/01/27 03:54:16;;;;;;;2.35;1.02;;;18.00;58.10;;;;;;6224658;23;20140;-82
2022/01/27 03:56:42;;;;;;;3.25;1.55;;;18.00;58.10;;;;;;6174504;23;20175;-82
2022/01/27 03:59:08;;;;;;;3.47;1.00;;;18.00;57.80;;;;;;6224210;22;20196;-82
2022/01/27 04:01:35;;;;;;;2.90;1.40;;;18.00;58.00;;;;;;6199442;23;20487;-81
2022/01/27 04:04:05;;;;;;;4.00;1.33;;;17.90;57.90;;;;;;6224038;23;20164;-82
2022/01/27 04:06:37;;;;;;;2.17;1.23;;;18.00;57.90;;;;;;6148213;23;20619;-82
2022/01/27 04:09:04;;;;;;;2.25;1.30;;;18.00;58.10;;;;;;6218590;23;20135;-81
2022/01/27 04:11:30;;;;;;;2.95;1.40;;;18.00;58.10;;;;;;6224522;23;20437;-82
2022/01/27 04:13:56;;;;;;;3.33;1.60;;;18.00;58.40;;;;;;6224126;23;20494;-82
2022/01/27 04:16:22;;;;;;;3.47;1.38;;;17.90;58.50;;;;;;6123092;23;20129;-81
2022/01/27 04:18:48;;;;;;;2.83;1.30;;;17.90;58.50;;;;;;6199303;23;20149;-82
2022/01/27 04:21:14;;;;;;;4.80;1.77;;;17.90;58.30;;;;;;6198965;23;20231;-81
2022/01/27 04:23:40;;;;;;;2.83;1.10;;;17.90;58.40;;;;;;6199088;23;20176;-82
2022/01/27 04:26:07;;;;;;;2.15;1.33;;;17.90;58.10;;;;;;6174032;23;20148;-81
2022/01/27 04:28:36;;;;;;;3.60;1.40;;;17.90;58.00;;;;;;6122294;23;20173;-82
2022/01/27 04:31:05;;;;;;;2.15;1.20;;;17.90;58.50;;;;;;6139774;23;20150;-81
2022/01/27 04:33:34;;;;;;;2.40;1.30;;;17.80;58.20;;;;;;6164817;23;20146;-81
2022/01/27 04:36:08;;;;;;;3.50;1.10;;;17.90;58.50;;;;;;6164134;23;20161;-82
2022/01/27 04:38:59;;;;;;;1.92;1.13;;;17.80;58.10;;;;;;6164449;23;20236;-82
2022/01/27 04:41:36;;;;;;;1.88;1.05;;;17.90;58.60;;;;;;6192251;23;20154;-82
2022/01/27 04:46:53;;;;;;;2.88;1.20;;;17.90;58.40;;;;;;6167799;23;20244;-82
2022/01/27 04:49:20;;;;;;;2.13;1.30;;;17.90;58.10;;;;;;6143467;23;20157;-81
2022/01/27 04:51:46;;;;;;;3.40;1.20;;;17.80;58.40;;;;;;6138116;23;20489;-82
2022/01/27 04:54:20;;;;;;;1.95;1.27;;;17.90;58.40;;;;;;6163220;23;20142;-82
2022/01/27 04:56:49;;;;;;;1.65;1.08;;;17.90;58.80;;;;;;6140948;23;20150;-83
2022/01/27 04:59:22;;;;;;;1.77;1.10;;;17.90;58.30;;;;;;6138283;23;20532;-82
2022/01/27 05:01:57;;;;;;;3.30;1.45;;;17.80;58.30;;;;;;6164971;23;20242;-82
2022/01/27 05:04:30;;;;;;;2.10;1.10;;;17.80;58.30;;;;;;6165564;23;20242;-82
2022/01/27 05:06:58;;;;;;;3.50;1.20;;;17.80;58.10;;;;;;6164851;23;20605;-81
2022/01/27 05:09:27;;;;;;;3.92;1.33;;;17.80;58.60;;;;;;6191147;23;20153;-81
2022/01/27 05:12:07;;;;;;;1.70;1.20;;;17.80;58.20;;;;;;6148046;23;20615;-82
2022/01/27 05:14:35;;;;;;;3.20;1.38;;;17.80;58.70;;;;;;6168099;23;20591;-81
2022/01/27 05:17:01;;;;;;;2.65;1.13;;;17.80;58.60;;;;;;6147762;23;20163;-81
2022/01/27 05:19:26;;;;;;;3.33;1.33;;;17.80;58.70;;;;;;6173821;23;20152;-81
2022/01/27 05:21:52;;;;;;;2.72;1.40;;;17.70;58.80;;;;;;6173916;23;20156;-82
2022/01/27 05:24:19;;;;;;;4.05;1.20;;;17.80;58.60;;;;;;6173423;23;20275;-81
2022/01/27 05:26:47;;;;;;;2.70;1.10;;;17.80;58.50;;;;;;6173673;23;20400;-82
2022/01/27 05:29:14;;;;;;;1.90;1.13;;;17.80;58.00;;;;;;6147829;23;20156;-81
2022/01/27 05:31:43;;;;;;;3.00;1.23;;;17.90;57.40;;;;;;6172018;23;20163;-81
2022/01/27 05:34:10;;;;;;;3.20;1.30;;;17.90;57.40;;;;;;6149048;23;20156;-81
2022/01/27 05:36:36;;;;;;;2.97;1.02;;;18.00;57.10;;;;;;6172557;23;20156;-82
2022/01/27 05:39:03;;;;;;;2.42;1.10;;;18.00;57.20;;;;;;6173652;23;20518;-82
2022/01/27 05:41:30;;;;;;;1.77;1.30;;;18.00;57.30;;;;;;6148141;23;20584;-82
2022/01/27 05:43:56;;;;;;;2.13;1.25;;;18.10;57.30;;;;;;6147376;23;20611;-81
2022/01/27 05:46:22;;;;;;;3.30;1.42;;;18.00;57.20;;;;;;6173873;23;20245;-82
2022/01/27 05:48:48;;;;;;;2.50;1.10;;;18.00;57.30;;;;;;6198129;23;20465;-81
2022/01/27 05:51:14;;;;;;;2.75;1.35;;;18.10;56.90;;;;;;6198651;23;20136;-82
2022/01/27 05:53:40;;;;;;;1.83;1.08;;;18.10;57.20;;;;;;6174693;23;20229;-82
2022/01/27 05:56:06;;;;;;;3.17;1.17;;;18.10;57.00;;;;;;6175325;23;20202;-82
2022/01/27 05:58:33;;;;;;;2.80;1.40;;;18.20;57.10;;;;;;6200032;23;20191;-81
2022/01/27 06:01:00;;;;;;;2.13;1.00;;;18.10;56.90;;;;;;6124705;23;20507;-81
2022/01/27 06:03:27;;;;;;;2.05;1.30;;;18.20;56.90;;;;;;6174244;23;20184;-82
2022/01/27 06:05:53;;;;;;;1.95;1.05;;;18.20;56.80;;;;;;6149667;23;20626;-82
2022/01/27 06:08:19;;;;;;;2.80;1.02;;;18.30;56.60;;;;;;6173754;23;20218;-82
2022/01/27 06:10:45;;;;;;;2.40;1.00;;;18.20;56.70;;;;;;6200056;23;20564;-81
2022/01/27 06:13:12;;;;;;;3.30;1.20;;;18.20;56.40;;;;;;6225134;23;20128;-81
2022/01/27 06:15:38;;;;;;;2.33;1.13;;;18.30;56.80;;;;;;6173866;23;20232;-81
2022/01/27 06:18:05;;;;;;;2.40;1.30;;;18.20;56.90;;;;;;6149095;23;20294;-81
2022/01/27 06:20:32;;;;;;;2.78;1.23;;;18.20;56.40;;;;;;6226055;23;20152;-81
2022/01/27 06:22:58;;;;;;;2.33;1.10;;;18.20;56.70;;;;;;6199235;23;20216;-81
2022/01/27 06:25:25;;;;;;;1.77;1.10;;;18.20;56.50;;;;;;6200050;23;20160;-81
2022/01/27 06:27:51;;;;;;;1.77;1.00;;;18.10;56.40;;;;;;6200450;23;20132;-82
2022/01/27 06:30:17;;;;;;;1.60;1.00;;;18.20;56.70;;;;;;6200289;23;20136;-82
2022/01/27 06:32:43;;;;;;;3.10;1.13;;;18.20;56.50;;;;;;6175071;23;20175;-82
2022/01/27 06:35:09;;;;;;;2.10;1.08;;;18.10;56.50;;;;;;6200036;23;20155;-81
2022/01/27 06:37:35;;;;;;;1.73;1.10;;;18.20;56.50;;;;;;6200547;23;20136;-81
2022/01/27 06:40:01;;;;;;;2.08;1.08;;;18.20;56.40;;;;;;6175428;23;20203;-82
2022/01/27 06:42:26;;;;;;;2.35;1.23;;;18.20;56.30;;;;;;6174967;23;20176;-81
2022/01/27 06:44:53;;;;;;;1.38;1.00;;;18.30;56.40;;;;;;6174929;23;20172;-82
2022/01/27 06:47:18;;;;;;;1.80;0.95;;;18.20;56.40;;;;;;6224447;23;20137;-81
2022/01/27 06:49:44;;;;;;;1.85;1.00;;;18.30;56.20;;;;;;6174844;23;20576;-82
2022/01/27 06:52:10;;;;;;;1.50;1.08;;;18.30;56.10;;;;;;6174705;23;20155;-82
2022/01/27 06:54:37;;;;;;;1.88;1.10;;;18.30;56.10;;;;;;6224561;23;20460;-82
2022/01/27 06:57:05;;;;;;;1.77;1.13;;;18.20;56.30;;;;;;6225159;23;20137;-81
2022/01/27 06:59:32;;;;;;;2.03;0.93;;;18.20;56.00;;;;;;6224447;22;20704;-82
2022/01/27 07:01:59;;;;;;;1.98;1.20;;;18.20;56.00;;;;;;6174051;23;20152;-81
2022/01/27 07:04:26;;;;;;;2.05;1.17;;;18.30;56.30;;;;;;6173379;23;20192;-81
2022/01/27 07:06:53;;;;;;;2.78;0.95;;;18.30;56.20;;;;;;6174500;23;20156;-81
2022/01/27 07:09:20;;;;;;;2.85;1.08;;;18.30;56.30;;;;;;6124666;23;20542;-81
2022/01/27 07:11:46;;;;;;;1.38;1.15;;;18.30;56.00;;;;;;6124212;23;20231;-84
2022/01/27 07:14:13;;;;;;;1.60;1.10;;;18.30;56.00;;;;;;6175146;23;20155;-82
2022/01/27 07:16:38;;;;;;;1.23;0.90;;;18.30;56.00;;;;;;6148629;23;20160;-81
2022/01/27 07:19:05;;;;;;;2.20;1.00;;;18.30;55.80;;;;;;6175267;23;20571;-81
2022/01/27 07:21:31;;;;;;;1.98;1.00;;;18.30;55.80;;;;;;6199160;23;20503;-81
2022/01/27 07:23:57;;;;;;;1.17;1.08;;;18.30;56.00;;;;;;6198199;23;20325;-81
2022/01/27 07:26:25;;;;;;;2.05;1.05;;;18.30;56.00;;;;;;6174013;23;20172;-81
2022/01/27 07:28:53;;;;;;;1.55;0.93;;;18.30;56.00;;;;;;6225507;23;20140;-80
2022/01/27 07:31:19;;;;;;;2.08;1.00;;;18.30;55.70;;;;;;6200426;23;20510;-81
2022/01/27 07:33:47;;;;;;;2.03;1.10;;;18.30;55.40;;;;;;6225757;23;20594;-81
2022/01/27 07:36:15;;;;;;;1.55;0.90;;;18.30;55.70;;;;;;6200189;23;20143;-81
2022/01/27 07:38:41;;;;;;;2.55;1.10;;;18.40;55.70;;;;;;6224938;23;20140;-82
2022/01/27 07:41:07;;;;;;;1.25;1.02;;;18.40;55.30;;;;;;6200206;23;20140;-82
2022/01/27 07:43:33;;;;;;;3.83;1.40;;;18.40;55.30;;;;;;6199752;23;20187;-81
2022/01/27 07:46:00;;;;;;;2.75;0.98;;;18.40;55.70;;;;;;6201148;23;20147;-81
2022/01/27 07:48:26;;;;;;;1.73;1.25;;;18.40;55.60;;;;;;6201242;23;20144;-81
2022/01/27 07:50:52;;;;;;;1.80;1.00;;;18.40;55.50;;;;;;6225507;23;20198;-82
2022/01/27 07:53:18;;;;;;;3.15;1.00;;;18.40;55.40;;;;;;6199884;23;20192;-82
2022/01/27 07:55:44;;;;;;;3.70;1.30;;;18.40;55.30;;;;;;6175236;23;20243;-82
2022/01/27 07:58:10;;;;;;;3.42;1.02;;;18.40;55.40;;;;;;6179488;22;20188;-82
2022/01/27 08:00:36;;;;;;;2.97;1.00;;;18.40;55.60;;;;;;6256291;22;20227;-82
2022/01/27 08:03:02;;;;;;;3.97;1.35;;;18.40;55.70;;;;;;6232068;22;20155;-83
2022/01/27 08:05:28;;;;;;;3.30;1.10;;;18.40;55.70;;;;;;6282055;22;20548;-82
2022/01/27 08:07:54;;;;;;;2.10;1.15;;;18.40;55.80;;;;;;6281762;22;20163;-82
2022/01/27 08:10:21;;;;;;;3.63;0.98;;;18.40;55.70;;;;;;6283035;22;20582;-83
2022/01/27 08:12:46;;;;;;;3.47;1.17;;;18.40;55.70;;;;;;6256842;22;20147;-83
2022/01/27 08:15:14;;;;;;;2.67;1.00;;;18.40;55.80;;;;;;6231380;22;20147;-83
2022/01/27 08:17:40;;;;;;;3.78;1.23;;;18.40;55.50;;;;;;6282459;22;20121;-83
2022/01/27 08:20:07;;;;;;;3.08;1.30;;;18.40;56.40;;;;;;6256602;22;20144;-83
2022/01/27 08:22:37;;;;;;;1.77;1.17;;;18.40;55.50;;;;;;6257627;22;20140;-83
2022/01/27 08:25:04;;;;;;;2.58;0.73;;;18.40;55.70;;;;;;6281640;22;20179;-81
2022/01/27 08:27:31;;;;;;;3.15;1.02;;;18.40;55.60;;;;;;6281885;22;20137;-82
2022/01/27 08:30:03;;;;;;;2.45;1.10;;;18.40;55.40;;;;;;6256117;22;20144;-82
2022/01/27 08:32:56;;;;;;;3.55;1.15;;;18.50;54.80;;;;;;6257845;22;20140;-82
2022/01/27 08:35:21;;;;;;;2.42;0.80;;;18.40;55.60;;;;;;6284965;22;20152;-81
2022/01/27 08:37:47;;;;;;;2.20;1.10;;;18.40;55.60;;;;;;6230266;22;20517;-81
2022/01/27 08:40:14;;;;;;;2.20;1.00;;;18.40;55.50;;;;;;6255442;22;20194;-83
2022/01/27 08:42:41;;;;;;;3.05;1.20;;;18.40;55.40;;;;;;6280392;22;20131;-83
2022/01/27 08:45:10;;;;;;;1.33;1.05;;;18.50;55.50;;;;;;6254525;22;20179;-82
2022/01/27 08:47:35;;;;;;;2.30;1.00;;;18.50;55.60;;;;;;6230795;22;20198;-82
2022/01/27 08:50:02;;;;;;;2.90;1.10;;;18.50;55.50;;;;;;6307462;22;20501;-81
2022/01/27 08:52:28;;;;;;;2.80;1.02;;;18.40;55.10;;;;;;6280417;22;20181;-81
2022/01/27 08:54:53;;;;;;;2.25;1.10;;;18.50;55.50;;;;;;6307406;22;20215;-81
2022/01/27 08:57:19;;;;;;;2.33;1.10;;;18.50;55.50;;;;;;6307113;22;20247;-81
2022/01/27 08:59:46;;;;;;;1.70;0.90;;;18.50;55.10;;;;;;6253686;22;20199;-81
2022/01/27 09:02:13;;;;;;;1.75;1.05;;;18.50;55.50;;;;;;6307687;22;20160;-82
2022/01/27 09:04:39;;;;;;;3.05;1.30;;;18.50;55.40;;;;;;6229709;22;20183;-81
2022/01/27 09:07:06;;;;;;;2.83;1.10;;;18.50;55.50;;;;;;6307715;22;20207;-81
2022/01/27 09:09:33;;;;;;;3.15;1.10;;;18.50;55.50;;;;;;6280226;22;20598;-81
2022/01/27 09:12:00;;;;;;;3.17;1.30;;;18.50;55.20;;;;;;6203500;22;20622;-81
2022/01/27 09:14:29;;;;;;;1.85;0.90;;;18.60;55.10;;;;;;6204066;22;20470;-81
2022/01/27 09:16:58;;;;;;;2.55;1.08;;;18.50;55.30;;;;;;6284451;22;20129;-80
2022/01/27 09:19:26;;;;;;;2.97;1.20;;;18.50;55.10;;;;;;6233317;22;20152;-81
2022/01/27 09:21:54;;;;;;;1.35;0.90;;;18.60;54.90;;;;;;6234771;22;20235;-80
2022/01/27 09:24:27;;;;;;;2.72;0.98;;;18.60;54.50;;;;;;6208132;22;20190;-80
2022/01/27 09:27:01;;;;;;;1.98;1.08;;;18.60;54.50;;;;;;6261606;22;20131;-81
2022/01/27 09:29:28;;;;;;;2.60;1.00;;;18.60;55.20;;;;;;6213727;22;20157;-81
2022/01/27 09:31:57;;;;;;;2.55;1.05;;;18.60;54.40;;;;;;6210974;22;20187;-81
2022/01/27 09:34:23;;;;;;;1.90;1.15;;;18.60;54.70;;;;;;6235429;22;20602;-81
2022/01/27 09:36:50;;;;;;;2.58;1.05;;;18.70;55.00;;;;;;6237804;22;20171;-81
2022/01/27 09:39:17;;;;;;;1.65;1.05;;;18.60;54.80;;;;;;6206117;22;20589;-81
2022/01/27 09:41:44;;;;;;;1.85;0.98;;;18.60;54.90;;;;;;6232351;22;20148;-82
2022/01/27 09:44:12;;;;;;;2.65;1.20;;;18.60;54.80;;;;;;6258083;22;20552;-81
2022/01/27 09:46:41;;;;;;;2.15;1.25;;;18.60;55.10;;;;;;6258197;22;20537;-82
2022/01/27 09:49:13;;;;;;;1.90;1.23;;;18.60;54.70;;;;;;6259225;22;20128;-82
2022/01/27 09:51:43;;;;;;;1.63;1.10;;;18.60;55.20;;;;;;6258289;22;20139;-82
2022/01/27 09:54:09;;;;;;;3.70;1.02;;;18.60;54.80;;;;;;6284289;22;20580;-82
2022/01/27 09:56:35;;;;;;;2.20;1.20;;;18.60;54.90;;;;;;6233473;22;20136;-82
2022/01/27 09:59:02;;;;;;;1.20;0.90;;;18.60;55.10;;;;;;6232501;22;20195;-81
2022/01/27 10:01:27;;;;;;;1.63;1.10;;;18.70;54.80;;;;;;6311190;22;20559;-81
2022/01/27 10:03:59;;;;;;;2.08;0.90;;;18.60;54.80;;;;;;6283224;22;20168;-82
2022/01/27 10:06:29;;;;;;;1.17;1.00;;;18.60;54.80;;;;;;6233060;22;20152;-81
2022/01/27 10:09:14;;;;;;;2.55;1.10;;;18.60;54.80;;;;;;6257958;22;20582;-81
2022/01/27 10:11:40;;;;;;;1.13;0.88;;;18.70;54.80;;;;;;6282861;22;20215;-82
2022/01/27 10:14:23;;;;;;;1.30;0.90;;;18.70;54.70;;;;;;6257802;22;20185;-82
2022/01/27 10:16:51;;;;;;;1.48;0.95;;;18.70;54.80;;;;;;6282661;22;20136;-83
2022/01/27 10:19:17;;;;;;;1.20;0.95;;;18.70;54.70;;;;;;6282553;22;20193;-82
2022/01/27 10:21:46;;;;;;;2.08;1.08;;;18.70;54.60;;;;;;6256586;22;20511;-82
2022/01/27 10:24:30;;;;;;;1.77;1.00;;;18.70;54.60;;;;;;6230379;22;20171;-82
2022/01/27 10:30:36;;;;;;;1.38;1.00;;;18.70;54.70;;;;;;6285364;22;20205;-82
2022/01/27 10:32:56;;;;;;;2.33;0.80;;;18.80;54.60;;;;;;6286475;22;20159;-82
2022/01/27 10:35:25;;;;;;;1.52;1.00;;;18.70;54.70;;;;;;6282103;22;20261;-82
2022/01/27 10:38:01;;;;;;;4.22;0.80;;;18.70;54.60;;;;;;6230723;22;20171;-81
2022/01/27 10:40:39;;;;;;;1.45;0.68;;;18.70;55.30;;;;;;6230935;22;20155;-81
2022/01/27 10:43:12;;;;;;;1.30;1.17;;;18.70;54.80;;;;;;6308449;22;20132;-84
2022/01/27 10:45:57;;;;;;;1.85;0.98;;;18.70;54.80;;;;;;6281779;22;20223;-83
2022/01/27 10:48:27;;;;;;;2.28;1.10;;;18.70;54.60;;;;;;6235317;22;20144;-82
2022/01/27 10:51:05;;;;;;;1.27;0.80;;;18.70;54.40;;;;;;6282277;22;20215;-83
2022/01/27 10:53:48;;;;;;;2.80;0.80;;;18.70;54.30;;;;;;6258905;22;20192;-81
2022/01/27 10:56:20;;;;;;;1.42;1.15;;;18.70;54.30;;;;;;6207554;22;20449;-83
2022/01/27 10:58:46;;;;;;;1.30;1.00;;;18.70;54.50;;;;;;6255706;22;20200;-82
2022/01/27 11:01:24;;;;;;;1.73;0.90;;;18.70;54.40;;;;;;6256228;22;20154;-82
2022/01/27 11:03:53;;;;;;;1.52;0.98;;;18.70;54.40;;;;;;6235645;22;20179;-82
2022/01/27 11:06:24;;;;;;;3.20;0.90;;;18.80;54.30;;;;;;6231434;22;20155;-83
2022/01/27 11:08:54;;;;;;;0.75;0.60;;;18.80;54.20;;;;;;6233346;22;20179;-82
2022/01/27 11:11:26;;;;;;;1.15;0.70;;;18.80;54.40;;;;;;6208482;22;20155;-82
2022/01/27 11:13:53;;;;;;;2.25;0.93;;;18.80;54.40;;;;;;6206590;22;20184;-83
2022/01/27 11:16:24;;;;;;;2.92;0.90;;;18.70;54.60;;;;;;6256002;22;20133;-83
2022/01/27 11:18:56;;;;;;;1.10;0.80;;;18.70;54.40;;;;;;6231416;22;20151;-84
2022/01/27 11:21:29;;;;;;;2.03;0.70;;;18.80;54.70;;;;;;6258930;22;20156;-83
2022/01/27 11:24:04;;;;;;;1.33;0.90;;;18.80;54.60;;;;;;6261303;22;20186;-80
2022/01/27 11:26:29;;;;;;;1.20;0.93;;;18.70;54.30;;;;;;6235871;22;20140;-81
2022/01/27 11:28:56;;;;;;;1.70;1.00;;;18.70;54.40;;;;;;6230535;22;20143;-81
2022/01/27 11:31:38;;;;;;;1.20;0.90;;;18.80;54.70;;;;;;6230940;22;20167;-81
2022/01/27 11:34:05;;;;;;;1.55;0.80;;;18.70;54.20;;;;;;6258061;22;20221;-82
2022/01/27 11:36:31;;;;;;;4.70;0.90;;;18.80;54.20;;;;;;6230937;22;20144;-81
2022/01/27 11:38:58;;;;;;;1.77;0.95;;;18.80;54.40;;;;;;6256193;22;20496;-81
2022/01/27 11:41:43;;;;;;;2.08;0.82;;;18.80;54.10;;;;;;6231005;22;20551;-81
2022/01/27 11:44:32;;;;;;;1.27;0.80;;;18.80;54.20;;;;;;6220763;23;20185;-80
2022/01/27 11:47:18;;;;;;;1.30;0.70;;;18.80;54.40;;;;;;6219505;23;20153;-81
2022/01/27 11:50:07;;;;;;;1.90;0.70;;;18.80;54.30;;;;;;6245144;23;20133;-84
2022/01/27 11:52:34;;;;;;;2.45;1.00;;;18.90;54.20;;;;;;6244145;23;20137;-84
2022/01/27 11:55:43;;;;;;;1.10;0.90;;;18.80;54.10;;;;;;6243942;23;20468;-82
2022/01/27 11:58:13;;;;;;;1.33;0.98;;;18.90;54.20;;;;;;6219123;23;20224;-82
2022/01/27 12:00:40;;;;;;;2.25;0.90;;;18.80;54.20;;;;;;6243666;23;20142;-81
2022/01/27 12:03:07;;;;;;;3.40;0.82;;;18.90;54.40;;;;;;6193637;23;20145;-82
2022/01/27 12:05:39;;;;;;;1.42;1.05;;;18.90;54.50;;;;;;6218671;23;20643;-83
2022/01/27 12:08:20;;;;;;;4.45;1.00;;;18.90;54.40;;;;;;6193897;23;20142;-82
2022/01/27 12:10:50;;;;;;;2.00;0.70;;;18.90;54.30;;;;;;6218225;23;20145;-81
2022/01/27 12:13:55;;;;;;;1.45;0.80;;;18.90;54.30;;;;;;6194644;23;20152;-82
2022/01/27 12:16:38;;;;;;;1.48;0.77;;;18.90;54.10;;;;;;6237063;22;20230;-81
2022/01/27 12:19:12;;;;;;;1.25;0.80;;;18.90;53.90;;;;;;6235964;22;20140;-80
2022/01/27 12:21:55;;;;;;;3.38;0.70;;;18.90;54.10;;;;;;6206802;22;20200;-83
2022/01/27 12:24:29;;;;;;;2.50;0.93;;;18.90;54.00;;;;;;6092941;23;20206;-80
2022/01/27 12:27:07;;;;;;;2.25;0.80;;;18.90;53.80;;;;;;6207174;23;20148;-80
2022/01/27 12:29:35;;;;;;;3.55;1.00;;;18.90;54.20;;;;;;6184164;23;20187;-80
2022/01/27 12:32:09;;;;;;;1.15;0.88;;;18.90;54.20;;;;;;6206757;23;20155;-82
2022/01/27 12:34:36;;;;;;;2.08;1.00;;;18.90;54.20;;;;;;6206068;23;20559;-80
2022/01/27 12:37:08;;;;;;;1.73;0.95;;;19.00;54.30;;;;;;6206872;22;20147;-80
2022/01/27 12:39:41;;;;;;;1.70;0.88;;;18.90;54.20;;;;;;6207689;23;20480;-82
2022/01/27 12:42:15;;;;;;;3.72;0.90;;;18.90;54.10;;;;;;6231100;22;20140;-81
2022/01/27 12:45:13;;;;;;;2.38;0.77;;;18.90;54.20;;;;;;6203671;22;20186;-80
2022/01/27 12:47:49;;;;;;;1.25;0.70;;;18.90;54.10;;;;;;6196206;23;20153;-82
2022/01/27 12:50:18;;;;;;;1.02;0.90;;;18.90;54.10;;;;;;6219707;23;20149;-81
2022/01/27 12:53:37;;;;;;;3.83;0.73;;;19.00;53.70;;;;;;6015855;23;20153;-82
2022/01/27 12:55:43;;;;;;;1.88;0.88;;;19.00;53.90;;;;;;5997876;23;20159;-82
2022/01/27 12:58:11;;;;;;;1.90;0.70;;;19.00;53.80;;;;;;6022415;23;20223;-82
2022/01/27 13:00:44;;;;;;;3.80;0.90;;;19.10;53.90;;;;;;6157291;23;20159;-82
2022/01/27 13:03:13;;;;;;;0.98;0.70;;;19.10;54.00;;;;;;6132022;23;20151;-82
2022/01/27 13:05:41;;;;;;;1.08;0.80;;;19.00;53.90;;;;;;6130788;23;20196;-82
2022/01/27 13:08:09;;;;;;;2.17;1.02;;;19.10;54.00;;;;;;6156612;23;20272;-82
2022/01/27 13:10:35;;;;;;;1.98;0.80;;;19.10;53.70;;;;;;6158211;23;20594;-82
2022/01/27 13:13:12;;;;;;;1.75;0.80;;;19.10;54.10;;;;;;6132762;23;20159;-82
2022/01/27 13:15:38;;;;;;;2.83;0.90;;;19.00;54.20;;;;;;6132721;23;20159;-82
2022/01/27 13:18:12;;;;;;;2.40;0.80;;;19.00;54.20;;;;;;6155466;23;20229;-82
2022/01/27 13:20:47;;;;;;;3.67;1.00;;;19.00;55.10;;;;;;6100821;23;20151;-82
2022/01/27 13:23:19;;;;;;;3.28;1.00;;;18.90;54.60;;;;;;6110931;23;20278;-82
2022/01/27 13:25:50;;;;;;;3.33;0.80;;;19.00;54.40;;;;;;6156887;23;20207;-82
2022/01/27 13:28:23;;;;;;;2.00;1.17;;;19.00;54.40;;;;;;6170161;23;20149;-82
2022/01/27 13:30:55;;;;;;;1.00;0.80;;;19.10;54.60;;;;;;6195713;23;20152;-81